• Join FlightAware (Why Join?)
  • Login
  • US Flag 
05:42AM EDT


 

Airport Tracker/Info


-or-


 

Live Flight TrackerFlight Track Log ✈ FIV521 ✈ 21-Apr-2013 ✈ KSUA - KBED

Flight Track Log - Related Links

Times and Time Zones

All times are in EDT time to prevent confusion due to time zone crossing. See the FIV521 flight status page for this flight to view local times or setup timezone preferences in your user account.

Time Position Orientation Groundspeed Altitude Reporting Facility
EDT Latitude Longitude Course Direction KTS MPH feet Rate Location/Type
02:11PM 27.1744 -80.1908 North 151 174 1,800  Level Miami Center
02:12PM 27.2117 -80.2058 340° North 168 193 3,900 2,460 Climbing Miami Center
02:13PM 27.2375 -80.2628 297° West 153 176 6,800 2,340 Climbing Miami Center
02:14PM 27.3053 -80.3019 333° Northwest 227 261 8,600 2,040 Climbing Miami Center
02:15PM 27.3800 -80.3278 343° North 264 304 10,900 2,100 Climbing Miami Center
02:16PM 27.4608 -80.3511 346° North 291 335 12,900 1,920 Climbing Miami Center
02:17PM 27.5981 -80.5000 North  Level FlightAware Approximate
02:17PM 27.5383 -80.3442 North 304 350 14,800  Level Miami Center
02:18PM 27.6336 -80.2883 27° Northeast 329 379 16,000 600 Climbing Miami Center
02:19PM 27.7308 -80.2375 25° Northeast 363 418 16,000  Level Miami Center
02:20PM 27.8281 -80.1864 25° Northeast 375 432 16,100 900 Climbing Miami Center
02:21PM 27.9106 -80.1369 28° Northeast 376 433 17,900 1,980 Climbing Miami Center
02:22PM 28.0011 -80.0925 23° Northeast 363 418 20,100 2,460 Climbing Miami Center
02:23PM 28.0964 -80.0389 26° Northeast 344 396 22,900 2,340 Climbing Miami Center
02:24PM 28.1808 -79.9894 27° Northeast 344 396 24,800 1,680 Climbing Miami Center
02:25PM 28.2675 -79.9375 28° Northeast 344 396 26,300 1,500 Climbing Miami Center
02:26PM 28.3486 -79.8525 43° Northeast 363 418 27,800 1,380 Climbing Miami Center
02:27PM 28.4256 -79.7650 45° Northeast 380 437 29,100 1,320 Climbing Miami Center
02:28PM 28.5047 -79.6725 46° Northeast 392 451 30,500 1,440 Climbing Miami Center
02:29PM 28.5836 -79.5797 46° Northeast 403 464 32,000 1,740 Climbing Miami Center
02:30PM 28.6625 -79.4919 44° Northeast 403 464 34,000 1,500 Climbing Miami Center
02:31PM 28.7392 -79.4061 44° Northeast 387 445 35,000 960 Climbing Miami Center
02:32PM 28.8181 -79.3156 45° Northeast 387 445 36,000 1,200 Climbing Miami Center
02:33PM 28.8925 -79.2247 47° Northeast 387 445 37,500 1,320 Climbing Miami Center
02:34PM 28.9711 -79.1386 44° Northeast 387 445 38,700 720 Climbing Miami Center
02:35PM 29.0458 -79.0453 48° Northeast 392 451 39,000 120 Climbing Miami Center
02:36PM 29.1347 -78.9519 43° Northeast 402 463 39,000  Level Miami Center
02:37PM 29.2197 -78.8514 46° Northeast 420 483 39,000  Level Miami Center
02:38PM 29.3044 -78.7433 48° Northeast 435 501 39,000  Level Miami Center
02:41PM 29.5772 -78.6231 21° North 422 486 39,000  Level Jacksonville Center
02:42PM 29.6928 -78.5869 15° North 427 491 39,000  Level Jacksonville Center
02:43PM 29.8003 -78.5511 16° North 435 501 39,000  Level Jacksonville Center
02:44PM 29.9200 -78.5147 15° North 435 501 39,000  Level Jacksonville Center
02:45PM 30.0333 -78.4736 17° North 429 494 39,000  Level Jacksonville Center
02:46PM 30.1511 -78.4344 16° North 429 494 39,000  Level Jacksonville Center
02:47PM 30.2772 -78.4000 13° North 429 494 39,000  Level Jacksonville Center
02:48PM 30.3967 -78.3606 16° North 429 494 39,000  Level Jacksonville Center
02:49PM 30.5164 -78.3236 15° North 434 499 39,000  Level Jacksonville Center
02:50PM 30.6339 -78.2817 17° North 439 505 39,000  Level Jacksonville Center
02:51PM 30.7578 -78.2419 15° North 443 510 39,000  Level Jacksonville Center
02:52PM 30.8817 -78.2042 15° North 443 510 39,000  Level Jacksonville Center
02:53PM 30.9928 -78.1647 17° North 443 510 39,000  Level Jacksonville Center
02:54PM 31.1164 -78.1197 17° North 443 510 39,000  Level Jacksonville Center
02:55PM 31.2336 -78.0750 18° North 443 510 39,000  Level Jacksonville Center
02:56PM 31.3533 -78.0372 15° North 443 510 39,000  Level Jacksonville Center
02:57PM 31.4772 -77.9992 15° North 448 516 39,000  Level Jacksonville Center
02:58PM 31.5964 -77.9561 17° North 448 516 39,000  Level Jacksonville Center
02:59PM 31.7183 -77.9228 13° North 448 516 39,000  Level Jacksonville Center
03:00PM 31.8419 -77.8794 17° North 448 516 39,000 300 Level Jacksonville Center
03:01PM 31.9614 -77.8389 16° North 448 516 39,700 900 Climbing Jacksonville Center
03:02PM 32.0767 -77.8006 16° North 448 516 40,800 600 Climbing Jacksonville Center
03:03PM 32.1961 -77.7572 17° North 443 510 41,000 60 Climbing Jacksonville Center
03:04PM 32.3156 -77.7186 15° North 443 510 41,000  Level Jacksonville Center
03:05PM 32.4350 -77.6797 15° North 443 510 41,000  Level Jacksonville Center
03:06PM 32.5583 -77.6356 17° North 448 516 41,000  Level Jacksonville Center
03:07PM 32.6797 -77.5964 15° North 448 516 41,000  Level Jacksonville Center
03:08PM 32.8033 -77.5547 16° North 448 516 41,000  Level Jacksonville Center
03:10PM 33.0767 -77.4600 16° North 460 529 41,000  Level Washington Center
03:11PM 33.2006 -77.4156 17° North 460 529 41,000  Level Washington Center
03:12PM 33.3242 -77.3736 16° North 460 529 41,000  Level Washington Center
03:13PM 33.4478 -77.3289 17° North 460 529 41,000  Level Washington Center
03:14PM 33.5758 -77.2867 15° North 460 529 41,000  Level Washington Center
03:15PM 33.6972 -77.2442 16° North 466 536 41,000  Level Washington Center
03:16PM 33.8208 -77.2017 16° North 461 531 41,000  Level Washington Center
03:17PM 33.9592 -77.1519 17° North 461 531 41,000  Level Washington Center
03:18PM 34.0808 -77.1089 16° North 461 531 41,000  Level Washington Center
03:19PM 34.2044 -77.0661 16° North 461 531 41,000  Level Washington Center
03:20PM 34.3303 -77.0231 16° North 461 531 41,000  Level Washington Center
03:21PM 34.4517 -76.9747 18° North 461 531 41,000  Level Washington Center
03:22PM 34.5753 -76.9339 15° North 461 531 41,000  Level Washington Center
03:23PM 34.6967 -76.8906 16° North 461 531 41,000  Level Washington Center
03:24PM 34.8203 -76.8469 16° North 461 531 41,000  Level Washington Center
03:25PM 34.9439 -76.8033 16° North 461 531 41,000  Level Washington Center
03:26PM 35.0653 -76.7569 17° North 461 531 41,000  Level Washington Center
03:27PM 35.1783 -76.7153 17° North 461 531 41,000  Level Washington Center
03:28PM 35.3000 -76.6686 17° North 456 525 41,000  Level Washington Center
03:29PM 35.4339 -76.6219 16° North 461 531 41,000  Level Washington Center
03:30PM 35.5553 -76.5750 17° North 461 531 41,000  Level Washington Center
03:31PM 35.6808 -76.5331 15° North 461 531 41,000  Level Washington Center
03:32PM 35.8064 -76.4858 17° North 461 531 41,000  Level Washington Center
03:33PM 35.9278 -76.4386 17° North 461 531 41,000  Level Washington Center
03:34PM 36.0533 -76.3911 17° North 461 531 41,000  Level Washington Center
03:35PM 36.1808 -76.3461 16° North 461 531 41,000  Level Washington Center
03:36PM 36.3042 -76.3008 16° North 461 531 41,000  Level Washington Center
03:37PM 36.4297 -76.2528 17° North 461 531 41,000  Level Washington Center
03:38PM 36.5572 -76.2075 16° North 461 531 41,000  Level Washington Center
03:39PM 36.6806 -76.1617 17° North 461 531 41,000  Level Washington Center
03:40PM 36.7933 -76.1133 19° North 461 531 41,000  Level Washington Center
03:41PM 36.9186 -76.0672 16° North 461 531 41,000  Level Washington Center
03:42PM 37.0608 -76.0161 16° North 474 545 41,000  Level Washington Center
03:43PM 37.1861 -75.9700 16° North 474 545 41,000  Level Washington Center
03:44PM 37.3133 -75.9208 17° North 474 545 41,000  Level Washington Center
03:45PM 37.4367 -75.8744 17° North 474 545 41,000  Level Washington Center
03:46PM 37.5639 -75.8225 18° North 474 545 41,000  Level Washington Center
03:47PM 37.6892 -75.7728 17° North 474 545 41,000  Level Washington Center
03:48PM 37.8164 -75.7258 16° North 474 545 41,000  Level Washington Center
03:49PM 37.9417 -75.6761 17° North 474 545 41,000  Level Washington Center
03:50PM 38.0647 -75.6208 19° North 474 545 41,000  Level Washington Center
03:51PM 38.1919 -75.5733 16° North 474 545 41,000  Level Washington Center
03:52PM 38.2942 -75.5308 18° North 474 545 41,000  Level Washington Center
03:53PM 38.4336 -75.4778 17° North 474 545 41,000  Level Washington Center
03:54PM 38.5608 -75.4192 20° North 479 551 41,000  Level Washington Center
03:55PM 38.6900 -75.3708 16° North 479 551 41,000  Level Washington Center
03:56PM 38.8169 -75.3200 17° North 479 551 41,000 -480 Level Washington Center
03:57PM 38.9356 -75.2394 28° Northeast 479 551 40,100 -1,200 Descending Washington Center
03:58PM 39.0458 -75.1400 35° Northeast 479 551 38,700 -1,500 Descending Washington Center
03:59PM 39.1600 -75.0347 36° Northeast 489 563 37,200 -900 Descending Washington Center
04:00PM 39.2761 -74.9319 34° Northeast 495 570 37,000 -120 Descending Washington Center
04:01PM 39.3903 -74.8289 35° Northeast 495 570 37,000  Level Washington Center
04:02PM 39.5019 -74.7228 36° Northeast 495 570 37,000  Level Washington Center
04:03PM 39.6158 -74.6192 35° Northeast 495 570 37,000  Level Washington Center
04:04PM 39.7275 -74.5150 36° Northeast 500 575 37,000  Level Washington Center
04:06PM 39.9186 -74.3164 39° Northeast 496 571 37,000 -480 Level New York Center
04:07PM 40.0222 -74.1969 41° Northeast 490 564 35,700 -1,620 Descending New York Center
04:08PM 40.1258 -74.0744 42° Northeast 495 570 33,900 -1,440 Descending New York Center
04:09PM 40.2331 -73.9575 40° Northeast 500 575 32,900 -900 Descending New York Center
04:10PM 40.3364 -73.8369 42° Northeast 500 575 32,200 -1,860 Descending New York Center
04:12PM 40.5228 -73.6167 42° Northeast 499 574 27,800 -2,460 Descending Boston Center
04:13PM 40.6178 -73.5117 40° Northeast 499 574 25,400 -2,400 Descending Boston Center
04:14PM 40.7336 -73.3658 44° Northeast 492 566 23,000 -1,200 Descending Boston Center
04:15PM 40.8344 -73.2547 40° Northeast 479 551 23,000 -300 Level Boston Center
04:16PM 40.9311 -73.1489 40° Northeast 467 537 22,500 -1,260 Descending Boston Center
04:17PM 41.0233 -73.0369 42° Northeast 455 524 20,500 -2,100 Descending Boston Center
04:18PM 41.1136 -72.9306 42° Northeast 443 510 18,400 -1,800 Descending Boston Center
04:19PM 41.1994 -72.8319 41° Northeast 426 490 16,900 -1,680 Descending Boston Center
04:20PM 41.2725 -72.7439 42° Northeast 405 466 15,100 -1,800 Descending Boston Center
04:21PM 41.3686 -72.6697 30° Northeast 366 421 13,300 -1,020 Descending Boston Center
04:22PM 41.4542 -72.6339 17° North 351 404 13,100 -180 Descending Boston Center
04:23PM 41.5561 -72.5872 19° North 346 398 13,000  Descending Boston Center
04:24PM 41.6314 -72.5150 36° Northeast 346 398 13,100  Climbing Boston Center
04:25PM 41.7169 -72.4233 39° Northeast 358 412 13,100 -660 Level Boston Center
04:26PM 41.7981 -72.3456 36° Northeast 363 418 11,800 -1,080 Descending Boston Center
04:27PM 41.8750 -72.2644 38° Northeast 352 405 11,000 -600 Descending Boston Center
04:27PM 41.8917 -72.2506 32° Northeast 340 391 11,100 -840 Climbing Boston Center
04:28PM 41.9478 -72.1917 38° Northeast 338 389 10,200 -900 Descending Boston Center
04:28PM 41.9728 -72.1664 37° Northeast 335 386 10,100 -420 Descending Boston Center
04:29PM 42.0186 -72.1186 38° Northeast 326 375 9,800 -900 Descending Boston Center
04:29PM 42.0331 -72.0992 45° Northeast 296 341 9,300 -1,620 Descending Boston Center
04:30PM 42.0767 -72.0569 36° Northeast 283 326 8,200 -1,500 Descending Boston Center
04:30PM 42.0933 -72.0400 37° Northeast 266 306 7,800 -1,440 Descending Boston Center
04:31PM 42.1328 -71.9978 38° Northeast 261 300 6,800 -1,620 Descending Boston Center
04:31PM 42.1514 -71.9808 34° Northeast 254 292 6,200 -1,620 Descending Boston Center
04:32PM 42.1867 -71.9358 43° Northeast 251 289 5,200 -1,020 Descending Boston Center
04:33PM 42.2197 -71.8625 59° Northeast 256 295 4,500 -600 Descending Boston Center
04:34PM 42.2547 -71.7808 60° Northeast 231 266 4,100 -240 Descending Boston Center
04:35PM 42.2875 -71.7106 58° Northeast 231 266 4,100 -60 Level Boston Center
04:36PM 42.3414 -71.6481 41° Northeast 236 272 4,000  Descending Boston Center
04:37PM 42.3889 -71.5967 39° Northeast 236 272 4,100 -480 Climbing Boston Center
04:37PM 42.4500 -71.5333 37° Northeast 236 272 3,100 -540 Descending KA90
04:38PM 42.4833 -71.4833 48° Northeast 227 261 3,100 -120 Level KA90
04:39PM 42.5000 -71.4000 75° East 223 257 2,900 -360 Descending KA90
04:40PM 42.5000 -71.3167 90° East 215 247 2,400 -420 Descending KA90
04:41PM 42.5167 -71.2500 71° East 182 209 2,100 -420 Descending KA90
04:42PM 42.4833 -71.2167 144° Southeast 141 162 1,600 -780 Descending KA90
04:43PM 42.4667 -71.2500 236° Southwest 135 155 600 -1,020 Descending KA90